TimeCDT,TemperatureF,Dew PointF,Humidity,Sea Level PressureIn,VisibilityMPH,Wind Direction,Wind SpeedMPH,Gust SpeedMPH,PrecipitationIn,Events,Conditions,WindDirDegrees,DateUTC
12:21 AM,60.8,57.2,88,30.05,-9999.0,North,10.4,-,0.02,,Scattered Clouds,10,2012-10-01 05:21:00
12:53 AM,61.0,57.0,87,29.88,-9999.0,South,9.2,-,0.02,,Scattered Clouds,180,2012-10-01 05:53:00
1:53 AM,61.0,57.0,87,29.88,-9999.0,SSE,4.6,-,N/A,,Clear,160,2012-10-01 06:53:00
2:53 AM,60.1,57.9,93,29.91,-9999.0,NNW,9.2,-,N/A,,Clear,330,2012-10-01 07:53:00
3:53 AM,60.1,57.0,90,29.90,-9999.0,WSW,8.1,-,N/A,,Clear,250,2012-10-01 08:53:00
4:53 AM,59.0,55.9,90,29.91,-9999.0,Calm,Calm,-,N/A,,Clear,0,2012-10-01 09:53:00
5:53 AM,57.9,55.9,93,29.91,-9999.0,NNW,5.8,-,N/A,,Clear,340,2012-10-01 10:53:00
6:53 AM,57.0,55.0,93,29.91,-9999.0,NW,5.8,-,N/A,,Clear,310,2012-10-01 11:53:00
7:53 AM,57.0,55.0,93,29.93,-9999.0,North,5.8,-,N/A,,Clear,350,2012-10-01 12:53:00
8:53 AM,61.0,55.9,83,29.94,10.0,North,4.6,-,N/A,,Clear,350,2012-10-01 13:53:00
9:53 AM,64.9,55.0,70,29.96,10.0,NNW,8.1,-,N/A,,Clear,340,2012-10-01 14:53:00
10:53 AM,71.1,55.0,57,29.97,10.0,North,12.7,-,N/A,,Clear,350,2012-10-01 15:53:00
11:53 AM,75.0,55.0,50,29.96,10.0,North,13.8,19.6,N/A,,Clear,10,2012-10-01 16:53:00
12:53 PM,78.8,53.6,42,30.05,10.0,NNE,11.5,-,N/A,,Clear,20,2012-10-01 17:53:00
1:53 PM,81.0,50.0,34,29.94,10.0,NNE,17.3,24.2,N/A,,Clear,20,2012-10-01 18:53:00
2:53 PM,82.0,48.9,31,29.91,10.0,NNE,15.0,-,N/A,,Clear,30,2012-10-01 19:53:00
3:53 PM,82.9,48.0,29,29.91,10.0,NNE,17.3,21.9,N/A,,Scattered Clouds,20,2012-10-01 20:53:00
4:53 PM,82.4,44.6,26,30.01,10.0,NNE,13.8,-,N/A,,Partly Cloudy,20,2012-10-01 21:53:00
5:53 PM,82.0,44.1,26,29.91,10.0,NNE,13.8,-,N/A,,Scattered Clouds,20,2012-10-01 22:53:00
6:53 PM,79.0,46.0,31,29.92,10.0,NNE,12.7,-,N/A,,Clear,20,2012-10-01 23:53:00
7:53 PM,73.9,48.9,41,29.94,10.0,NE,12.7,-,N/A,,Clear,50,2012-10-02 00:53:00
8:53 PM,69.1,53.1,57,29.98,10.0,ENE,5.8,-,N/A,,Clear,60,2012-10-02 01:53:00
9:53 PM,66.9,53.1,61,30.00,10.0,ENE,6.9,-,N/A,,Clear,60,2012-10-02 02:53:00
10:53 PM,64.9,53.1,65,30.01,10.0,ENE,5.8,-,N/A,,Partly Cloudy,60,2012-10-02 03:53:00
11:53 PM,66.0,52.0,60,30.01,10.0,ENE,4.6,-,N/A,,Overcast,70,2012-10-02 04:53:00